Flight Track Log - Related Links

Times and Time Zones

All times are in EDT time to prevent confusion due to time zone crossing. See the CSJ405 flight status page for this flight to view local times or setup timezone preferences in your user account.

Time Position Orientation Groundspeed Altitude Reporting Facility
EDT Latitude Longitude Course Direction KTS MPH feet Rate Location/Type
Thu 12:51:57 AM 43.1667 -79.9000 90° East 40 46 800  Level Toronto Center
Thu 12:52:57 AM 43.1667 -79.9000 90° East 50 58 800 250 Level Toronto Center
Thu 12:53:57 AM 43.1500 -79.9333 236° Southwest 100 115 1,300 500 Climbing Toronto Center
Thu 12:54:57 AM 43.1333 -79.9500 216° Southwest 100 115 1,800 600 Climbing Toronto Center
Thu 12:55:57 AM 43.1167 -80.0000 245° Southwest 120 138 2,500 700 Climbing Toronto Center
Thu 12:56:57 AM 43.1167 -80.0500 270° West 110 127 3,200 750 Climbing Toronto Center
Thu 12:57:57 AM 43.1333 -80.0500 360° North 110 127 4,000 750 Climbing Toronto Center
Thu 12:58:00 AM 43.1500 -79.5678 90° East  Level FlightAware Approximate
Thu 12:58:57 AM 43.1500 -80.0000 65° Northeast 110 127 4,700  Level Toronto Center
Thu 12:59:57 AM 43.1500 -79.9833 90° East 110 127 5,500 750 Climbing Toronto Center
Thu 01:00:57 AM 43.1833 -79.9333 48° Northeast 120 138 6,200 700 Climbing Toronto Center
Thu 01:01:57 AM 43.2000 -79.9000 56° Northeast 110 127 6,900 450 Climbing Toronto Center
Thu 01:02:57 AM 43.2167 -79.8667 56° Northeast 120 138 7,100 100 Climbing Toronto Center
Thu 01:03:57 AM 43.2333 -79.8167 65° Northeast 140 161 7,100  Level Toronto Center
Thu 01:04:57 AM 43.2500 -79.7667 65° Northeast 150 173 7,100  Level Toronto Center
Thu 01:05:57 AM 43.2833 -79.7000 56° Northeast 160 184 7,100  Level Toronto Center
Thu 01:06:57 AM 43.3000 -79.6500 65° Northeast 160 184 7,100  Level Toronto Center
Thu 01:07:57 AM 43.3333 -79.6167 36° Northeast 160 184 7,100 -50 Level Toronto Center
Thu 01:08:57 AM 43.3500 -79.5667 65° Northeast 160 184 7,000  Descending Toronto Center
Thu 01:09:57 AM 43.3833 -79.5000 55° Northeast 160 184 7,100 50 Climbing Toronto Center
Thu 01:10:57 AM 43.4000 -79.4500 65° Northeast 160 184 7,100 -50 Level Toronto Center
Thu 01:11:57 AM 43.4167 -79.4000 65° Northeast 160 184 7,000  Descending Toronto Center
Thu 01:12:57 AM 43.4500 -79.3500 47° Northeast 160 184 7,100 50 Climbing Toronto Center
Thu 01:13:57 AM 43.4667 -79.2833 71° East 160 184 7,100  Level Toronto Center
Thu 01:14:57 AM 43.5000 -79.2500 36° Northeast 160 184 7,100  Level Toronto Center
Thu 01:15:58 AM 43.5167 -79.2000 65° Northeast 160 184 7,100  Level Toronto Center
Thu 01:16:58 AM 43.5333 -79.1500 65° Northeast 160 184 7,100  Level Toronto Center
Thu 01:17:58 AM 43.5667 -79.0833 55° Northeast 160 184 7,100  Level Toronto Center
Thu 01:18:58 AM 43.5833 -79.0333 65° Northeast 160 184 7,100  Level Toronto Center
Thu 01:19:58 AM 43.6167 -78.9833 47° Northeast 160 184 7,100  Level Toronto Center
Thu 01:20:58 AM 43.6333 -78.9500 55° Northeast 160 184 7,100  Level Toronto Center
Thu 01:21:58 AM 43.6667 -78.8667 61° Northeast 160 184 7,100  Level Toronto Center
Thu 01:22:58 AM 43.6833 -78.8333 55° Northeast 160 184 7,100  Level Toronto Center
Thu 01:23:58 AM 43.7000 -78.7833 65° Northeast 160 184 7,100  Level Toronto Center
Thu 01:24:58 AM 43.7333 -78.7333 47° Northeast 160 184 7,100  Level Toronto Center
Thu 01:25:58 AM 43.7500 -78.6833 65° Northeast 160 184 7,100  Level Toronto Center
Thu 01:26:58 AM 43.7833 -78.6333 47° Northeast 160 184 7,100  Level Toronto Center
Thu 01:27:58 AM 43.8000 -78.5667 71° East 160 184 7,100 -50 Level Toronto Center
Thu 01:28:58 AM 43.8167 -78.5167 65° Northeast 160 184 7,000  Descending Toronto Center
Thu 01:29:58 AM 43.8333 -78.4833 55° Northeast 160 184 7,100 -50 Climbing Toronto Center
Thu 01:30:58 AM 43.8500 -78.4333 65° Northeast 160 184 6,900 -50 Descending Toronto Center
Thu 01:31:58 AM 43.8833 -78.3667 55° Northeast 160 184 7,000 50 Climbing Toronto Center
Thu 01:32:58 AM 43.9000 -78.3167 65° Northeast 160 184 7,000  Level Toronto Center
Thu 01:33:58 AM 43.9167 -78.2667 65° Northeast 160 184 7,000  Level Toronto Center
Thu 01:34:58 AM 43.9500 -78.2167 47° Northeast 160 184 7,000 50 Level Toronto Center
Thu 01:35:58 AM 43.9667 -78.1667 65° Northeast 160 184 7,100 50 Climbing Toronto Center
Thu 01:36:58 AM 44.0000 -78.1000 55° Northeast 150 173 7,100  Level Toronto Center
Thu 01:37:58 AM 44.0167 -78.0500 65° Northeast 150 173 7,100  Level Toronto Center
Thu 01:38:58 AM 44.0333 -78.0167 55° Northeast 150 173 7,100 -50 Level Toronto Center
Thu 01:39:58 AM 44.0667 -77.9667 47° Northeast 150 173 7,000  Descending Toronto Center
Thu 01:40:58 AM 44.0833 -77.9167 65° Northeast 150 173 7,100 50 Climbing Toronto Center
Thu 01:41:58 AM 44.1167 -77.8667 47° Northeast 150 173 7,100  Level Toronto Center
Thu 01:42:58 AM 44.1333 -77.8167 65° Northeast 150 173 7,100  Level Toronto Center
Thu 01:43:58 AM 44.1500 -77.7500 71° East 150 173 7,100  Level Toronto Center
Thu 01:44:58 AM 44.1833 -77.7000 47° Northeast 150 173 7,100  Level Toronto Center
Thu 01:45:58 AM 44.2000 -77.6500 65° Northeast 150 173 7,100  Level Toronto Center
Thu 01:46:58 AM 44.2167 -77.6167 55° Northeast 150 173 7,100  Level Toronto Center
Thu 01:47:58 AM 44.2333 -77.5667 65° Northeast 150 173 7,100  Level Toronto Center
Thu 01:48:58 AM 44.2667 -77.5167 47° Northeast 160 184 7,100  Level Toronto Center
Thu 01:49:58 AM 44.2833 -77.4500 71° East 150 173 7,100  Level Toronto Center
Thu 01:50:58 AM 44.3167 -77.4000 47° Northeast 160 184 7,100  Level Toronto Center
Thu 01:51:58 AM 44.3167 -77.3500 90° East 160 184 7,100  Level Toronto Center
Thu 01:52:58 AM 44.3333 -77.3000 65° Northeast 160 184 7,100  Level Toronto Center
Thu 01:53:58 AM 44.3667 -77.2333 55° Northeast 160 184 7,100  Level Toronto Center
Thu 01:54:58 AM 44.3833 -77.1833 65° Northeast 160 184 7,100  Level Toronto Center
Thu 01:55:58 AM 44.4167 -77.1333 47° Northeast 160 184 7,100  Level Toronto Center
Thu 01:56:58 AM 44.4333 -77.0833 65° Northeast 160 184 7,100  Level Toronto Center
Thu 01:57:58 AM 44.4667 -77.0167 55° Northeast 160 184 7,100  Level Toronto Center
Thu 01:58:58 AM 44.4833 -76.9667 65° Northeast 160 184 7,100  Level Toronto Center
Thu 01:59:58 AM 44.5000 -76.9167 65° Northeast 160 184 7,100  Level Toronto Center
Thu 02:00:58 AM 44.5333 -76.8667 47° Northeast 160 184 7,100  Level Toronto Center
Thu 02:01:58 AM 44.5500 -76.8000 71° East 160 184 7,100  Level Toronto Center
Thu 02:02:58 AM 44.5833 -76.7500 47° Northeast 160 184 7,100  Level Toronto Center
Thu 02:03:58 AM 44.6000 -76.7000 65° Northeast 170 196 7,100  Level Toronto Center
Thu 02:04:58 AM 44.6167 -76.6333 71° East 160 184 7,100  Level Toronto Center
Thu 02:05:58 AM 44.6333 -76.5833 65° Northeast 170 196 7,100  Level Toronto Center
Thu 02:06:58 AM 44.6667 -76.5333 47° Northeast 170 196 7,100  Level Toronto Center
Thu 02:07:58 AM 44.6833 -76.4667 71° East 170 196 7,100  Level Toronto Center
Thu 02:08:58 AM 44.7167 -76.4167 47° Northeast 170 196 7,100  Level Toronto Center
Thu 02:09:58 AM 44.7333 -76.3667 65° Northeast 170 196 7,100  Level Toronto Center
Thu 02:10:58 AM 44.7667 -76.3000 55° Northeast 170 196 7,100  Level Toronto Center
Thu 02:11:58 AM 44.7833 -76.2500 65° Northeast 170 196 7,100  Level Toronto Center
Thu 02:12:58 AM 44.8167 -76.2000 47° Northeast 170 196 7,100  Level Toronto Center
Thu 02:13:58 AM 44.8333 -76.1333 71° East 170 196 7,100  Level Toronto Center
Thu 02:14:58 AM 44.8667 -76.0833 47° Northeast 170 196 7,100  Level Toronto Center
Thu 02:15:58 AM 44.8667 -76.0000 90° East 170 196 7,100  Level Toronto Center
Thu 02:16:58 AM 44.9000 -75.9667 35° Northeast 170 196 7,100  Level Toronto Center
Thu 02:17:58 AM 44.9167 -75.9167 65° Northeast 170 196 7,100  Level Toronto Center
Thu 02:18:58 AM 44.9500 -75.8333 61° Northeast 170 196 7,100  Level Toronto Center
Thu 02:19:58 AM 44.9667 -75.7833 65° Northeast 170 196 7,100  Level Toronto Center
Thu 02:20:58 AM 45.0000 -75.7333 47° Northeast 170 196 7,100  Level Toronto Center
Thu 02:21:58 AM 45.0167 -75.6667 71° East 170 196 7,100  Level Toronto Center
Thu 02:22:58 AM 45.0500 -75.6167 47° Northeast 170 196 7,100  Level Toronto Center
Thu 02:23:58 AM 45.0667 -75.5667 65° Northeast 160 184 7,100  Level Toronto Center
Thu 02:24:58 AM 45.0833 -75.5000 70° East 170 196 7,100  Level Toronto Center
Thu 02:25:58 AM 45.1000 -75.4500 65° Northeast 160 184 7,100  Level Toronto Center
Thu 02:26:58 AM 45.1333 -75.4000 47° Northeast 160 184 7,100  Level Toronto Center
Thu 02:27:58 AM 45.1500 -75.3333 70° East 170 196 7,100  Level Toronto Center
Thu 02:28:58 AM 45.1833 -75.2833 47° Northeast 170 196 7,100  Level Toronto Center
Thu 02:29:58 AM 45.2000 -75.2333 65° Northeast 170 196 7,100  Level Toronto Center
Thu 02:30:58 AM 45.2333 -75.1500 60° Northeast 170 196 7,100  Level Toronto Center
Thu 02:31:58 AM 45.2333 -75.1000 90° East 170 196 7,100  Level Toronto Center
Thu 02:32:58 AM 45.2667 -75.0500 47° Northeast 170 196 7,100  Level Toronto Center
Thu 02:33:58 AM 45.2833 -74.9833 70° East 170 196 7,100  Level Toronto Center
Thu 02:34:58 AM 45.3000 -74.9333 65° Northeast 170 196 7,100  Level Toronto Center
Thu 02:35:58 AM 45.3333 -74.8667 55° Northeast 170 196 7,100  Level Toronto Center
Thu 02:36:58 AM 45.3667 -74.8167 46° Northeast 170 196 7,100  Level Toronto Center
Thu 02:37:58 AM 45.3833 -74.7667 65° Northeast 170 196 7,100  Level Toronto Center
Thu 02:38:58 AM 45.4000 -74.6833 74° East 170 196 7,100 -50 Level Toronto Center
Thu 02:39:58 AM 45.4167 -74.6500 55° Northeast 170 196 7,000 -250 Descending Toronto Center
Thu 02:40:58 AM 45.4500 -74.5667 60° Northeast 180 207 6,600 -400 Descending Toronto Center
Thu 02:41:58 AM 45.4667 -74.5167 65° Northeast 180 207 6,200 -300 Descending Toronto Center
Thu 02:42:58 AM 45.5000 -74.4500 54° Northeast 180 207 6,000 -250 Descending Toronto Center
Thu 02:43:58 AM 45.5167 -74.4000 65° Northeast 170 196 5,700 -450 Descending Toronto Center
Thu 02:44:58 AM 45.5333 -74.3167 74° East 180 207 5,100 -600 Descending Toronto Center
Thu 02:45:58 AM 45.5500 -74.2667 65° Northeast 180 207 4,500 -470 Descending Toronto Center
Thu 02:46:53 AM 45.5833 -74.2500 19° North 180 207 4,200 -470 Descending Montreal Center
Thu 02:47:53 AM 45.6167 -74.1667 60° Northeast 180 207 3,600 -950 Descending Montreal Center
Thu 02:48:53 AM 45.6167 -74.1000 90° East 180 207 2,300 -1,350 Descending Montreal Center
Thu 02:49:53 AM 45.6500 -74.0500 46° Northeast 170 196 900 -1,000 Descending Montreal Center
Thu 02:50:53 AM 45.6500 -74.0000 90° East 100 115 300 -600 Descending Montreal Center

Login

Don't have an account? Register now (free) for customized features, flight alerts, and more!